createdAt,value
2019-05-09T00:00:10.353Z,15.90
2019-05-09T00:02:45.106Z,11.50
2019-05-09T00:05:22.539Z,13.83
2019-05-09T00:07:56.145Z,12.55
2019-05-09T00:10:39.357Z,14.78
2019-05-09T00:13:07.332Z,14.35
2019-05-09T00:15:43.659Z,12.03
2019-05-09T00:18:18.227Z,13.93
2019-05-09T00:20:57.629Z,11.73
2019-05-09T00:23:33.224Z,12.43
2019-05-09T00:26:07.975Z,13.43
2019-05-09T00:28:44.387Z,10.68
2019-05-09T00:31:29.766Z,12.13
2019-05-09T00:34:28.310Z,14.58
2019-05-09T00:37:03.202Z,12.28
2019-05-09T00:39:37.846Z,15.30
2019-05-09T00:42:13.676Z,11.33
2019-05-09T00:45:09.012Z,11.97
2019-05-09T00:47:43.810Z,15.45
2019-05-09T00:50:18.578Z,11.97
2019-05-09T00:52:53.830Z,15.93
2019-05-09T00:55:28.571Z,10.80
2019-05-09T00:58:04.228Z,13.50
2019-05-09T01:00:39.173Z,13.03
2019-05-09T01:03:14.307Z,12.88
2019-05-09T01:05:49.119Z,12.30
2019-05-09T01:08:24.204Z,11.70
2019-05-09T01:11:11.063Z,12.68
2019-05-09T01:13:35.513Z,16.80
2019-05-09T01:16:10.264Z,15.90
2019-05-09T01:18:45.047Z,11.83
2019-05-09T01:21:19.807Z,12.37
2019-05-09T01:23:54.518Z,9.30
2019-05-09T01:26:29.133Z,12.68
2019-05-09T01:29:04.516Z,10.55
2019-05-09T01:31:39.317Z,11.68
2019-05-09T01:34:18.657Z,14.70
2019-05-09T01:37:09.951Z,11.80
2019-05-09T01:39:44.741Z,11.53
2019-05-09T01:42:19.581Z,13.28
2019-05-09T01:44:54.306Z,11.70
2019-05-09T01:47:29.075Z,14.55
2019-05-09T01:50:04.284Z,16.05
2019-05-09T01:52:38.963Z,18.82
2019-05-09T01:55:14.295Z,15.65
2019-05-09T01:57:49.067Z,13.85
2019-05-09T02:00:24.035Z,15.45
2019-05-09T02:02:58.666Z,14.47
2019-05-09T02:05:34.066Z,15.43
2019-05-09T02:08:08.684Z,19.20
2019-05-09T02:10:44.160Z,15.63
2019-05-09T02:13:19.086Z,14.83
2019-05-09T02:16:03.286Z,15.45
2019-05-09T02:18:45.090Z,18.10
2019-05-09T02:21:19.886Z,16.80
2019-05-09T02:23:54.583Z,15.45
2019-05-09T02:26:29.317Z,15.78
2019-05-09T02:29:03.990Z,21.50
2019-05-09T02:31:38.726Z,18.82
2019-05-09T02:34:14.887Z,16.32
2019-05-09T02:36:50.008Z,18.37
2019-05-09T02:39:24.628Z,17.35
2019-05-09T02:42:08.031Z,22.58
2019-05-09T02:44:39.268Z,24.77
2019-05-09T02:47:19.933Z,23.22
2019-05-09T02:49:54.783Z,21.20
2019-05-09T02:52:29.507Z,20.17
2019-05-09T02:55:05.273Z,20.85
2019-05-09T02:57:40.630Z,18.20
2019-05-09T03:00:33.315Z,21.42
2019-05-09T03:03:12.361Z,22.55
2019-05-09T03:05:48.714Z,19.25
2019-05-09T03:08:23.406Z,19.35
2019-05-09T03:10:59.133Z,22.93
2019-05-09T03:13:34.156Z,18.50
2019-05-09T03:16:10.560Z,20.37
2019-05-09T03:18:45.287Z,19.15
2019-05-09T03:21:24.297Z,20.30
2019-05-09T03:23:59.459Z,20.48
2019-05-09T03:26:38.582Z,18.40
2019-05-09T03:29:13.928Z,18.70
2019-05-09T03:31:50.434Z,21.55
2019-05-09T03:34:25.328Z,22.35
2019-05-09T03:36:59.952Z,18.80
2019-05-09T03:39:34.671Z,22.35
2019-05-09T03:42:09.376Z,24.43
2019-05-09T03:44:44.167Z,21.23
2019-05-09T03:47:20.492Z,23.30
2019-05-09T03:49:58.627Z,22.15
2019-05-09T03:52:33.100Z,26.55
2019-05-09T03:55:10.636Z,24.98
2019-05-09T03:57:47.616Z,24.05
2019-05-09T04:00:22.710Z,27.50
2019-05-09T04:02:58.077Z,28.42
2019-05-09T04:05:33.030Z,27.10
2019-05-09T04:08:18.539Z,27.58
2019-05-09T04:10:53.761Z,28.32
2019-05-09T04:13:30.155Z,23.52
2019-05-09T04:16:07.374Z,26.12
2019-05-09T04:18:41.265Z,27.32
2019-05-09T04:21:17.543Z,25.43
2019-05-09T04:23:52.310Z,27.65
2019-05-09T04:26:31.827Z,26.40
2019-05-09T04:29:08.042Z,28.55
2019-05-09T04:31:42.961Z,29.63
2019-05-09T04:34:18.276Z,25.70
2019-05-09T04:36:53.095Z,25.77
2019-05-09T04:39:28.472Z,28.98
2019-05-09T04:42:05.426Z,30.23
2019-05-09T04:44:49.577Z,25.12
2019-05-09T04:47:43.525Z,26.52
2019-05-09T04:50:23.613Z,26.20
2019-05-09T04:52:54.779Z,25.97
2019-05-09T04:55:31.051Z,27.05
2019-05-09T04:58:05.835Z,26.57
2019-05-09T05:00:42.181Z,29.35
2019-05-09T05:03:18.332Z,26.30
2019-05-09T05:05:53.128Z,31.70
2019-05-09T05:08:28.529Z,28.50
2019-05-09T05:11:12.665Z,31.52
2019-05-09T05:13:51.196Z,33.35
2019-05-09T05:16:27.404Z,29.02
2019-05-09T05:19:02.231Z,30.05
2019-05-09T05:21:37.778Z,30.05
2019-05-09T05:24:18.476Z,30.48
2019-05-09T05:26:53.308Z,32.88
2019-05-09T05:29:28.280Z,30.80
2019-05-09T05:32:04.652Z,26.50
2019-05-09T05:34:57.330Z,29.18
2019-05-09T05:37:32.037Z,30.00
2019-05-09T05:40:07.902Z,30.55
2019-05-09T05:42:42.614Z,28.15
2019-05-09T05:45:18.215Z,26.93
2019-05-09T05:47:54.585Z,28.38
2019-05-09T05:50:29.302Z,28.42
2019-05-09T05:53:04.058Z,29.30
2019-05-09T05:55:38.715Z,27.02
2019-05-09T05:58:13.474Z,26.82
2019-05-09T06:00:48.211Z,27.42
2019-05-09T06:03:22.975Z,27.93
2019-05-09T06:05:58.419Z,24.77
2019-05-09T06:08:33.455Z,26.65
2019-05-09T06:11:11.879Z,28.95
2019-05-09T06:13:54.451Z,28.52
2019-05-09T06:16:22.333Z,28.75
2019-05-09T06:18:58.625Z,28.92
2019-05-09T06:21:33.638Z,25.72
2019-05-09T06:24:08.626Z,29.92
2019-05-09T06:26:43.420Z,32.88
2019-05-09T06:29:18.118Z,28.62
2019-05-09T06:31:52.832Z,28.38
2019-05-09T06:34:27.901Z,27.85
2019-05-09T06:37:03.518Z,28.40
2019-05-09T06:39:38.784Z,31.10
2019-05-09T06:42:13.656Z,28.87
2019-05-09T06:45:01.935Z,30.88
2019-05-09T06:47:38.246Z,33.67
2019-05-09T06:50:19.606Z,28.62
2019-05-09T06:52:54.389Z,30.72
2019-05-09T06:55:29.736Z,30.55
2019-05-09T06:58:22.462Z,28.52
2019-05-09T07:00:58.751Z,25.72
2019-05-09T07:03:35.074Z,25.62
2019-05-09T07:06:23.563Z,34.90
2019-05-09T07:09:17.327Z,28.95
2019-05-09T07:11:51.338Z,31.10
2019-05-09T07:14:33.392Z,34.88
2019-05-09T07:17:08.364Z,33.20
2019-05-09T07:19:44.062Z,32.38
2019-05-09T07:22:32.822Z,29.55
2019-05-09T07:25:18.743Z,35.85
2019-05-09T07:27:53.470Z,31.70
2019-05-09T07:30:42.006Z,34.88
2019-05-09T07:33:19.315Z,31.33
2019-05-09T07:35:54.425Z,36.33
2019-05-09T07:38:30.401Z,30.52
2019-05-09T07:41:05.111Z,37.90
2019-05-09T07:43:39.736Z,35.25
2019-05-09T07:46:19.202Z,36.42
2019-05-09T07:48:57.684Z,36.03
2019-05-09T07:51:31.914Z,34.03
2019-05-09T07:54:20.694Z,30.92
2019-05-09T07:56:43.379Z,35.80
2019-05-09T07:59:18.240Z,34.98
2019-05-09T08:01:53.149Z,37.93
2019-05-09T08:04:28.620Z,37.63
2019-05-09T08:07:03.646Z,37.75
2019-05-09T08:09:38.854Z,39.50
2019-05-09T08:12:13.766Z,37.63
2019-05-09T08:15:06.765Z,38.60
2019-05-09T08:17:28.414Z,34.88
2019-05-09T08:20:02.108Z,34.43
2019-05-09T08:22:42.131Z,33.05
2019-05-09T08:25:13.219Z,36.58
2019-05-09T08:27:48.347Z,38.30
2019-05-09T08:30:23.128Z,40.73
2019-05-09T08:32:59.977Z,37.42
2019-05-09T08:35:34.235Z,43.10
2019-05-09T08:38:09.028Z,41.37
2019-05-09T08:40:43.787Z,44.27
2019-05-09T08:43:19.862Z,46.45
2019-05-09T08:45:54.569Z,49.15
2019-05-09T08:48:29.295Z,46.77
2019-05-09T08:51:05.694Z,47.43
2019-05-09T08:53:40.335Z,51.30
2019-05-09T08:56:15.095Z,57.05
2019-05-09T08:58:49.815Z,53.05
2019-05-09T09:01:35.489Z,56.35
2019-05-09T09:04:01.175Z,60.60
2019-05-09T09:06:37.405Z,59.63
2019-05-09T09:09:12.088Z,59.85
2019-05-09T09:11:47.849Z,55.55
2019-05-09T09:14:22.733Z,56.05
2019-05-09T09:16:59.292Z,57.25
2019-05-09T09:19:35.185Z,56.63
2019-05-09T09:22:09.924Z,70.62
2019-05-09T09:24:44.682Z,60.15
2019-05-09T09:27:19.379Z,64.30
2019-05-09T09:29:54.087Z,58.25
2019-05-09T09:32:28.934Z,61.95
2019-05-09T09:35:04.664Z,61.37
2019-05-09T09:37:48.355Z,61.88
2019-05-09T09:40:17.714Z,55.05
2019-05-09T09:42:51.948Z,48.33
2019-05-09T09:45:28.074Z,50.88
2019-05-09T09:48:03.041Z,50.67
2019-05-09T09:50:38.473Z,48.02
2019-05-09T09:53:13.234Z,46.40
2019-05-09T09:55:48.036Z,48.02
2019-05-09T09:58:22.712Z,40.60
2019-05-09T10:00:59.076Z,40.73
2019-05-09T10:03:34.299Z,39.65
2019-05-09T10:06:09.119Z,35.35
2019-05-09T10:08:43.817Z,39.73
2019-05-09T10:11:18.582Z,38.13
2019-05-09T10:13:53.531Z,38.42
2019-05-09T10:16:44.690Z,45.08
2019-05-09T10:21:59.415Z,33.78
2019-05-09T10:24:34.123Z,32.63
2019-05-09T10:27:10.656Z,28.15
2019-05-09T10:29:47.821Z,30.27
2019-05-09T10:32:22.114Z,22.67
2019-05-09T10:34:58.064Z,25.17
2019-05-09T10:37:33.111Z,25.02
2019-05-09T10:40:07.873Z,23.30
2019-05-09T10:43:01.437Z,24.77
2019-05-09T10:45:41.061Z,23.42
2019-05-09T10:48:15.884Z,27.17
2019-05-09T10:50:54.049Z,30.40
2019-05-09T10:53:28.386Z,24.20
2019-05-09T10:56:03.127Z,24.82
2019-05-09T10:58:37.972Z,26.80
2019-05-09T11:01:12.669Z,22.85
2019-05-09T11:03:48.319Z,28.27
2019-05-09T11:06:23.462Z,25.60
2019-05-09T11:08:58.611Z,36.30
2019-05-09T11:11:33.569Z,24.02
2019-05-09T11:14:08.722Z,26.57
2019-05-09T11:16:49.039Z,24.95
2019-05-09T11:19:19.978Z,27.15
2019-05-09T11:21:54.673Z,29.72
2019-05-09T11:24:41.136Z,26.23
2019-05-09T11:27:08.324Z,27.80
2019-05-09T11:29:42.206Z,30.95
2019-05-09T11:32:17.911Z,31.93
2019-05-09T11:34:52.976Z,27.67
2019-05-09T11:37:27.682Z,27.25
2019-05-09T11:40:02.499Z,26.85
2019-05-09T11:42:38.082Z,26.07
2019-05-09T11:45:13.171Z,27.52
2019-05-09T11:47:47.938Z,28.20
2019-05-09T11:50:23.400Z,26.17
2019-05-09T11:53:00.934Z,22.27
2019-05-09T11:55:37.801Z,30.20
2019-05-09T11:58:11.972Z,35.38
2019-05-09T12:00:49.269Z,36.20
2019-05-09T12:03:23.340Z,35.50
2019-05-09T12:05:58.378Z,35.85
2019-05-09T12:08:33.121Z,32.93
2019-05-09T12:11:08.505Z,34.18
2019-05-09T12:13:43.331Z,34.53
2019-05-09T12:16:18.770Z,33.67
2019-05-09T12:18:53.566Z,34.05
2019-05-09T12:21:29.277Z,36.08
2019-05-09T12:24:04.051Z,33.83
2019-05-09T12:26:39.182Z,34.70
2019-05-09T12:29:14.166Z,33.20
2019-05-09T12:31:48.902Z,33.30
2019-05-09T12:34:23.599Z,35.68
2019-05-09T12:36:58.671Z,33.80
2019-05-09T12:39:33.489Z,29.63
2019-05-09T12:42:08.798Z,31.82
2019-05-09T12:44:46.103Z,31.00
2019-05-09T12:47:20.905Z,27.95
2019-05-09T12:49:58.083Z,29.72
2019-05-09T12:52:31.947Z,14.30
2019-05-09T12:55:08.181Z,7.50
2019-05-09T12:57:43.219Z,3.90
2019-05-09T13:00:18.791Z,2.67
2019-05-09T13:02:53.591Z,2.85
2019-05-09T13:05:28.417Z,2.42
2019-05-09T13:08:03.456Z,2.02
2019-05-09T13:10:38.137Z,1.90
2019-05-09T13:13:13.000Z,2.55
2019-05-09T13:15:58.109Z,1.90
2019-05-09T13:18:50.723Z,1.87
2019-05-09T13:21:28.690Z,1.62
2019-05-09T13:24:02.102Z,2.55
2019-05-09T13:26:38.509Z,1.87
2019-05-09T13:29:13.344Z,2.20
2019-05-09T13:31:48.401Z,1.60
2019-05-09T13:34:23.136Z,2.17
2019-05-09T13:36:59.067Z,1.87
2019-05-09T13:39:33.974Z,1.42
2019-05-09T13:42:08.660Z,1.80
2019-05-09T13:44:43.392Z,2.10
2019-05-09T13:47:18.095Z,1.30
2019-05-09T13:49:55.797Z,1.25
2019-05-09T13:52:29.099Z,1.50
2019-05-09T13:55:04.502Z,2.05
2019-05-09T13:57:39.193Z,1.25
2019-05-09T14:00:15.224Z,3.90
2019-05-09T14:02:49.855Z,1.42
2019-05-09T14:05:24.645Z,1.47
2019-05-09T14:08:03.440Z,1.80
2019-05-09T14:10:38.134Z,1.05
2019-05-09T14:13:13.965Z,1.20
2019-05-09T14:15:49.014Z,1.12
2019-05-09T14:18:23.945Z,0.70
2019-05-09T14:20:58.695Z,1.60
2019-05-09T14:23:36.856Z,1.20
2019-05-09T14:26:09.861Z,1.87
2019-05-09T14:28:44.541Z,1.00
2019-05-09T14:31:19.328Z,0.95
2019-05-09T14:33:54.007Z,1.30
2019-05-09T14:36:28.731Z,1.45
2019-05-09T14:39:05.157Z,1.50
2019-05-09T14:41:39.895Z,2.20
2019-05-09T14:44:18.126Z,3.02
2019-05-09T14:46:52.449Z,2.42
2019-05-09T14:49:39.623Z,3.60
2019-05-09T14:52:03.550Z,2.58
2019-05-09T14:54:39.183Z,3.08
2019-05-09T14:57:14.179Z,2.60
2019-05-09T14:59:48.780Z,2.85
2019-05-09T15:02:23.421Z,4.03
2019-05-09T15:05:01.097Z,2.65
2019-05-09T15:07:35.804Z,4.17
2019-05-09T15:10:10.657Z,8.85
2019-05-09T15:12:45.380Z,6.97
2019-05-09T15:15:20.358Z,5.62
2019-05-09T15:17:55.074Z,4.30
2019-05-09T15:20:29.762Z,2.60
2019-05-09T15:23:04.474Z,3.92
2019-05-09T15:25:39.180Z,3.47
2019-05-09T15:28:13.883Z,4.75
2019-05-09T15:30:48.978Z,8.35
2019-05-09T15:33:23.881Z,6.33
2019-05-09T15:35:58.997Z,4.83
2019-05-09T15:38:33.914Z,3.70
2019-05-09T15:41:12.307Z,3.65
2019-05-09T15:43:48.545Z,4.22
2019-05-09T15:46:24.860Z,4.53
2019-05-09T15:48:59.497Z,4.83
2019-05-09T15:51:34.184Z,4.60
2019-05-09T15:54:08.966Z,4.22
2019-05-09T15:56:44.355Z,4.37
2019-05-09T15:59:19.212Z,4.58
2019-05-09T16:01:53.900Z,4.40
2019-05-09T16:04:28.630Z,3.80
2019-05-09T16:07:03.394Z,3.70
2019-05-09T16:09:38.082Z,3.33
2019-05-09T16:12:12.799Z,2.45
2019-05-09T16:14:48.669Z,2.90
2019-05-09T16:17:23.427Z,2.17
2019-05-09T16:19:58.235Z,5.40
2019-05-09T16:22:32.912Z,7.85
2019-05-09T16:25:08.401Z,6.00
2019-05-09T16:27:43.043Z,5.12
2019-05-09T16:30:17.938Z,4.62
2019-05-09T16:32:52.630Z,4.22
2019-05-09T16:35:28.600Z,4.03
2019-05-09T16:38:07.865Z,3.75
2019-05-09T16:40:41.150Z,4.55
2019-05-09T16:43:17.830Z,5.17
2019-05-09T16:45:52.386Z,7.22
2019-05-09T16:48:27.685Z,8.95
2019-05-09T16:51:04.278Z,10.08
2019-05-09T16:53:38.904Z,9.38
2019-05-09T16:56:13.628Z,5.45
2019-05-09T16:58:50.954Z,3.90
2019-05-09T17:01:28.215Z,4.17
2019-05-09T17:04:02.227Z,4.42
2019-05-09T17:06:38.079Z,5.40
2019-05-09T17:09:13.315Z,9.28
2019-05-09T17:11:48.218Z,7.28
2019-05-09T17:14:23.982Z,8.13
2019-05-09T17:17:00.032Z,6.35
2019-05-09T17:19:37.628Z,6.85
2019-05-09T17:22:12.994Z,7.95
2019-05-09T17:24:48.738Z,6.20
2019-05-09T17:27:23.461Z,13.20
2019-05-09T17:29:58.138Z,6.35
2019-05-09T17:32:33.395Z,21.55
2019-05-09T17:35:08.154Z,11.18
2019-05-09T17:37:42.895Z,13.50
2019-05-09T17:40:19.304Z,10.20
2019-05-09T17:42:54.038Z,8.83
2019-05-09T17:45:29.868Z,8.65
2019-05-09T17:48:05.057Z,8.95
2019-05-09T17:50:39.825Z,11.48
2019-05-09T17:53:14.603Z,8.28
2019-05-09T17:55:49.360Z,9.70
2019-05-09T17:58:29.249Z,10.25
2019-05-09T18:01:00.413Z,9.08
2019-05-09T18:03:35.199Z,10.55
2019-05-09T18:06:09.985Z,13.20
2019-05-09T18:08:44.762Z,16.62
2019-05-09T18:11:19.460Z,18.27
2019-05-09T18:13:54.265Z,18.02
2019-05-09T18:16:28.963Z,14.13
2019-05-09T18:19:04.070Z,9.43
2019-05-09T18:21:49.924Z,10.13
2019-05-09T18:24:17.541Z,9.63
2019-05-09T18:26:51.638Z,6.60
2019-05-09T18:29:27.395Z,7.35
2019-05-09T18:32:20.230Z,6.50
2019-05-09T18:34:58.511Z,6.03
2019-05-09T18:37:42.964Z,6.80
2019-05-09T18:40:19.496Z,6.03
2019-05-09T18:42:58.206Z,6.00
2019-05-09T18:45:32.066Z,6.20
2019-05-09T18:48:08.443Z,5.40
2019-05-09T18:50:43.413Z,5.65
2019-05-09T18:53:18.113Z,7.53
2019-05-09T18:55:52.862Z,9.05
2019-05-09T18:58:27.494Z,12.25
2019-05-09T19:01:02.221Z,10.58
2019-05-09T19:03:36.908Z,7.90
2019-05-09T19:06:11.721Z,7.70
2019-05-09T19:08:46.399Z,8.43
2019-05-09T19:11:21.113Z,8.80
2019-05-09T19:13:56.948Z,15.40
2019-05-09T19:16:45.391Z,17.87
2019-05-09T19:19:21.970Z,10.55
2019-05-09T19:21:58.311Z,8.35
2019-05-09T19:24:33.151Z,8.08
2019-05-09T19:27:08.037Z,7.45
2019-05-09T19:29:42.725Z,28.35
2019-05-09T19:32:17.521Z,25.92
2019-05-09T19:34:52.105Z,18.45
2019-05-09T19:37:26.858Z,16.45
2019-05-09T19:40:01.498Z,9.33
2019-05-09T19:42:36.195Z,9.63
2019-05-09T19:45:11.358Z,13.22
2019-05-09T19:47:46.012Z,17.57
2019-05-09T19:50:20.774Z,10.65
2019-05-09T19:52:56.432Z,8.80
2019-05-09T19:55:31.038Z,8.00
2019-05-09T19:58:05.839Z,7.42
2019-05-09T20:00:40.438Z,7.28
2019-05-09T20:03:17.073Z,7.22
2019-05-09T20:05:51.717Z,8.75
2019-05-09T20:08:26.501Z,10.85
2019-05-09T20:11:08.917Z,21.57
2019-05-09T20:13:57.558Z,19.87
2019-05-09T20:16:39.697Z,19.95
2019-05-09T20:19:14.421Z,11.90
2019-05-09T20:21:49.220Z,10.23
2019-05-09T20:24:23.985Z,11.05
2019-05-09T20:26:58.744Z,12.95
2019-05-09T20:29:33.474Z,14.38
2019-05-09T20:32:08.273Z,11.30
2019-05-09T20:34:43.075Z,10.60
2019-05-09T20:37:17.770Z,11.10
2019-05-09T20:39:52.866Z,12.53
2019-05-09T20:42:27.746Z,13.48
2019-05-09T20:45:03.525Z,13.60
2019-05-09T20:47:38.486Z,14.38
2019-05-09T20:50:13.675Z,13.32
2019-05-09T20:52:48.553Z,13.50
2019-05-09T20:55:23.610Z,14.98
2019-05-09T20:57:58.484Z,15.35
2019-05-09T21:00:33.478Z,16.70
2019-05-09T21:03:08.971Z,16.42
2019-05-09T21:05:43.949Z,15.98
2019-05-09T21:08:18.758Z,21.12
2019-05-09T21:10:53.781Z,16.40
2019-05-09T21:13:28.587Z,16.27
2019-05-09T21:16:03.588Z,16.35
2019-05-09T21:18:38.506Z,16.65
2019-05-09T21:21:13.583Z,19.40
2019-05-09T21:23:48.461Z,20.12
2019-05-09T21:26:23.447Z,21.00
2019-05-09T21:28:58.396Z,21.40
2019-05-09T21:31:33.384Z,21.00
2019-05-09T21:34:11.007Z,21.45
2019-05-09T21:36:45.806Z,23.15
2019-05-09T21:39:22.443Z,22.93
2019-05-09T21:41:57.173Z,25.17
2019-05-09T21:44:31.796Z,23.95
2019-05-09T21:47:06.614Z,23.73
2019-05-09T21:49:41.308Z,26.02
2019-05-09T21:52:16.098Z,26.20
2019-05-09T21:54:50.787Z,26.68
2019-05-09T21:57:25.520Z,26.45
2019-05-09T22:00:00.203Z,26.23
2019-05-09T22:02:35.004Z,27.10
2019-05-09T22:05:09.757Z,27.82
2019-05-09T22:07:44.411Z,27.30
2019-05-09T22:10:19.239Z,30.50
2019-05-09T22:12:54.037Z,29.00
2019-05-09T22:15:28.803Z,40.98
2019-05-09T22:18:03.604Z,32.63
2019-05-09T22:20:38.311Z,31.52
2019-05-09T22:23:13.063Z,28.07
2019-05-09T22:25:47.800Z,28.73
2019-05-09T22:28:22.603Z,29.90
2019-05-09T22:30:57.374Z,30.27
2019-05-09T22:33:32.041Z,28.95
2019-05-09T22:36:06.795Z,30.75
2019-05-09T22:38:43.610Z,31.20
2019-05-09T22:41:17.903Z,31.85
2019-05-09T22:43:52.699Z,30.27
2019-05-09T22:46:27.338Z,28.80
2019-05-09T22:49:02.146Z,28.23
2019-05-09T22:51:36.755Z,32.90
2019-05-09T22:54:13.022Z,29.32
2019-05-09T22:56:48.001Z,27.45
2019-05-09T22:59:22.825Z,26.70
2019-05-09T23:01:57.579Z,25.72
2019-05-09T23:04:32.322Z,22.73
2019-05-09T23:07:07.078Z,22.85
2019-05-09T23:09:41.737Z,23.57
2019-05-09T23:12:16.430Z,21.52
2019-05-09T23:14:51.227Z,20.40
2019-05-09T23:17:26.052Z,20.52
2019-05-09T23:20:02.518Z,20.80
2019-05-09T23:22:37.259Z,19.87
2019-05-09T23:25:12.055Z,20.02
2019-05-09T23:27:46.671Z,21.17
2019-05-09T23:30:21.533Z,19.52
2019-05-09T23:32:56.217Z,20.30
2019-05-09T23:35:30.940Z,20.92
2019-05-09T23:38:05.776Z,21.15
2019-05-09T23:40:40.544Z,22.17
2019-05-09T23:43:15.178Z,20.57
2019-05-09T23:45:49.907Z,21.93
2019-05-09T23:48:24.612Z,21.65
2019-05-09T23:50:59.258Z,23.02
2019-05-09T23:53:37.723Z,23.40
2019-05-09T23:56:30.330Z,19.98
2019-05-09T23:59:23.057Z,21.97
